Time;durP1;ratioP1;P1;durP2;ratioP2;P2;SDS_P1;SDS_P2;PMS_P1;PMS_P2;Temp;Humidity;BMP_temperature;BMP_pressure;BME280_temperature;BME280_humidity;BME280_pressure;Samples;Min_cycle;Max_cycle;Signal;HPM_P1;HPM_P2
2021/09/08 00:02:18;;;;;;;23.95;20.13;;;22.30;99.90;;;22.60;60.74;101880.16;5112892;28;20035;-72
2021/09/08 00:04:48;;;;;;;26.20;20.63;;;22.30;99.90;;;22.49;61.28;101877.84;5112866;28;20039;-72
2021/09/08 00:07:17;;;;;;;27.55;20.23;;;22.20;99.90;;;22.48;61.28;101880.56;5114965;28;20067;-72
2021/09/08 00:09:45;;;;;;;23.75;19.60;;;22.10;99.90;;;22.47;61.38;101878.81;5116499;28;20067;-72
2021/09/08 00:12:13;;;;;;;27.25;21.13;;;22.10;99.90;;;22.40;61.26;101880.84;5116205;28;20116;-72
2021/09/08 00:14:43;;;;;;;24.23;21.20;;;22.00;99.90;;;22.26;61.71;101873.28;5116642;28;20425;-72
2021/09/08 00:17:12;;;;;;;25.70;21.58;;;21.90;99.90;;;22.09;62.11;101870.31;5116629;28;20389;-72
2021/09/08 00:19:40;;;;;;;25.00;20.98;;;21.70;99.90;;;22.18;62.14;101861.88;5116275;28;20536;-72
2021/09/08 00:22:11;;;;;;;25.85;21.17;;;21.80;99.90;;;21.97;62.62;101859.97;5116845;28;20050;-72
2021/09/08 00:24:40;;;;;;;27.75;20.98;;;21.60;99.90;;;21.85;63.19;101856.84;5116483;28;20052;-72
2021/09/08 00:27:08;;;;;;;28.00;21.65;;;21.50;99.90;;;21.88;62.97;101825.28;5098098;28;20059;-72
2021/09/08 00:29:37;;;;;;;28.00;22.30;;;21.50;99.90;;;22.04;62.68;101848.06;5098160;28;20051;-72
2021/09/08 00:32:08;;;;;;;25.88;20.65;;;21.60;99.90;;;22.10;62.58;101839.75;5116295;28;20039;-72
2021/09/08 00:34:37;;;;;;;25.65;21.08;;;21.70;99.90;;;22.21;62.46;101842.91;5116455;28;20446;-72
2021/09/08 00:37:05;;;;;;;26.88;22.77;;;21.80;99.90;;;22.15;62.40;101839.56;5097955;28;20124;-72
2021/09/08 00:39:35;;;;;;;29.75;21.38;;;21.80;99.90;;;22.24;62.26;101834.69;5116200;28;20043;-72
2021/09/08 00:42:10;;;;;;;26.77;21.33;;;21.80;99.90;;;22.00;62.62;101837.44;5116258;28;20079;-72
2021/09/08 00:44:40;;;;;;;29.75;23.00;;;21.70;99.90;;;21.94;62.94;101825.06;5097611;28;20048;-72
2021/09/08 00:47:13;;;;;;;28.77;22.40;;;21.60;99.90;;;21.70;63.12;101809.72;5116029;28;20043;-72
2021/09/08 00:49:43;;;;;;;27.98;22.58;;;21.50;99.90;;;21.85;63.40;101822.69;5115965;28;20040;-72
2021/09/08 00:52:13;;;;;;;29.13;23.20;;;21.50;99.90;;;21.71;63.76;101821.38;5115898;28;20122;-72
2021/09/08 00:54:48;;;;;;;26.25;23.13;;;21.40;99.90;;;21.46;63.92;101797.13;5115998;28;20077;-72
2021/09/08 00:57:21;;;;;;;30.20;23.20;;;21.30;99.90;;;21.57;64.11;101813.78;5115884;28;20457;-72
2021/09/08 00:59:50;;;;;;;31.02;23.83;;;21.20;99.90;;;21.53;64.20;101820.19;5097615;28;20107;-72
2021/09/08 01:02:20;;;;;;;29.90;23.25;;;21.20;99.90;;;21.32;64.79;101816.44;5115518;28;20039;-72
2021/09/08 01:04:53;;;;;;;29.33;23.90;;;21.10;99.90;;;20.95;65.56;101805.06;5115911;28;20122;-72
2021/09/08 01:07:24;;;;;;;32.58;23.33;;;20.80;99.90;;;20.90;66.22;101804.34;5115731;28;20394;-72
2021/09/08 01:09:53;;;;;;;30.60;24.08;;;20.60;99.90;;;20.80;66.73;101808.25;5097294;28;20531;-72
2021/09/08 01:12:24;;;;;;;33.60;25.00;;;20.40;99.90;;;20.14;66.98;101703.66;5115534;28;20048;-72
2021/09/08 01:14:53;;;;;;;33.45;24.55;;;20.40;99.90;;;20.59;67.31;101803.56;5115138;28;20051;-72
2021/09/08 01:17:23;;;;;;;34.78;25.73;;;20.20;99.90;;;20.75;67.15;101806.66;5114864;28;20553;-72
2021/09/08 01:19:51;;;;;;;31.13;24.37;;;20.30;99.90;;;20.79;66.88;101802.94;5115130;28;20044;-72
2021/09/08 01:22:20;;;;;;;29.77;23.75;;;20.40;99.90;;;20.93;66.75;101800.66;5115083;28;20284;-72
2021/09/08 01:24:50;;;;;;;31.25;24.73;;;20.50;99.90;;;21.10;66.25;101804.59;5115005;28;20089;-72
2021/09/08 01:27:18;;;;;;;32.70;25.50;;;20.70;99.90;;;21.26;65.78;101808.56;5115270;28;20047;-72
2021/09/08 01:29:47;;;;;;;33.17;24.67;;;20.80;99.90;;;21.35;65.36;101807.38;5115194;28;20131;-72
2021/09/08 01:32:15;;;;;;;31.05;23.55;;;20.90;99.90;;;21.45;65.14;101803.44;5114803;28;20093;-72
2021/09/08 01:34:44;;;;;;;32.15;24.95;;;21.00;99.90;;;21.48;64.82;101803.34;5115112;28;20069;-72
2021/09/08 01:37:12;;;;;;;32.03;24.90;;;21.10;99.90;;;21.53;64.67;101798.66;5114773;28;20043;-72
2021/09/08 01:39:40;;;;;;;32.60;25.38;;;21.10;99.90;;;21.56;64.46;101801.25;5114963;28;20040;-72
2021/09/08 01:42:10;;;;;;;29.63;24.02;;;21.20;99.90;;;21.58;64.41;101793.13;5114952;28;20489;-72
2021/09/08 01:44:39;;;;;;;33.92;26.27;;;21.20;99.90;;;21.63;64.21;101797.41;5115730;28;20361;-72
2021/09/08 01:47:08;;;;;;;35.03;25.83;;;21.30;99.90;;;21.66;64.41;101799.13;5115119;28;20043;-72
2021/09/08 01:49:36;;;;;;;33.67;25.42;;;21.30;99.90;;;21.62;64.20;101797.47;5114567;28;20454;-72
2021/09/08 01:52:05;;;;;;;33.92;25.15;;;21.30;99.90;;;21.56;64.05;101787.81;5114770;28;20052;-72
2021/09/08 01:54:33;;;;;;;31.77;24.88;;;21.20;99.90;;;21.42;64.39;101776.63;5114339;28;20074;-72
2021/09/08 01:57:02;;;;;;;36.50;25.75;;;21.10;99.90;;;21.35;64.55;101778.63;5114371;28;20451;-72
2021/09/08 01:59:32;;;;;;;33.72;25.33;;;21.00;99.90;;;21.39;64.51;101782.97;5114685;28;20062;-72
2021/09/08 02:02:01;;;;;;;32.65;25.38;;;21.00;99.90;;;21.46;64.51;101784.56;5114668;28;20074;-72
2021/09/08 02:04:30;;;;;;;34.10;25.20;;;21.10;99.90;;;21.42;64.39;101790.09;5114578;28;20140;-72
2021/09/08 02:06:58;;;;;;;34.05;25.88;;;21.10;99.90;;;21.48;64.42;101792.56;5114755;28;20035;-72
2021/09/08 02:09:27;;;;;;;31.67;25.77;;;21.10;99.90;;;21.55;64.24;101794.09;5114702;28;20131;-72
2021/09/08 02:11:55;;;;;;;35.22;26.08;;;21.20;99.90;;;21.55;64.48;101799.47;5114144;28;20058;-72
2021/09/08 02:14:23;;;;;;;37.28;27.00;;;21.10;99.90;;;21.58;64.03;101798.50;5114217;28;20404;-72
2021/09/08 02:16:53;;;;;;;31.33;25.10;;;21.20;99.90;;;21.65;64.01;101803.63;5114053;28;20586;-72
2021/09/08 02:19:22;;;;;;;35.88;25.58;;;21.20;99.90;;;21.65;64.08;101800.94;5114296;28;20062;-72
2021/09/08 02:21:50;;;;;;;32.65;24.33;;;21.20;99.90;;;21.62;64.02;101798.34;5095954;28;20500;-72
2021/09/08 02:24:19;;;;;;;36.53;26.13;;;21.20;99.90;;;21.61;63.97;101796.59;5114198;28;20043;-72
2021/09/08 02:26:47;;;;;;;33.53;25.30;;;21.10;99.90;;;21.64;64.27;101796.47;5095877;28;20047;-72
2021/09/08 02:29:16;;;;;;;33.92;27.33;;;21.10;99.90;;;21.63;64.01;101791.13;5113446;28;20039;-72
2021/09/08 02:31:44;;;;;;;35.50;26.27;;;21.20;99.90;;;21.71;63.89;101800.72;5113901;28;20381;-72
2021/09/08 02:34:14;;;;;;;31.33;24.95;;;21.20;99.90;;;21.75;63.96;101797.00;5113987;28;20385;-72
2021/09/08 02:36:42;;;;;;;30.92;24.90;;;21.20;99.90;;;21.75;64.00;101793.41;5114370;28;20039;-72
2021/09/08 02:39:11;;;;;;;32.08;25.85;;;21.20;99.90;;;21.72;63.81;101791.69;5113700;28;20048;-72
2021/09/08 02:41:40;;;;;;;32.95;24.95;;;21.20;99.90;;;21.76;63.90;101787.06;5113901;28;20052;-72
2021/09/08 02:44:08;;;;;;;32.50;25.08;;;21.20;99.90;;;21.73;63.97;101793.47;5114020;28;20101;-72
2021/09/08 02:46:37;;;;;;;32.17;24.45;;;21.20;99.90;;;21.72;63.81;101780.91;5095706;28;20051;-72
2021/09/08 02:49:09;;;;;;;31.80;25.80;;;21.20;99.90;;;21.71;63.95;101784.56;5113640;28;20040;-72
2021/09/08 02:51:39;;;;;;;33.85;26.85;;;21.20;99.90;;;21.71;63.90;101784.56;5113849;28;20067;-72
2021/09/08 02:54:07;;;;;;;35.53;25.63;;;21.20;99.90;;;21.70;63.73;101776.53;5113782;28;20446;-72
2021/09/08 02:56:36;;;;;;;32.75;26.33;;;21.20;99.90;;;21.74;63.77;101775.50;5113862;28;20302;-72
2021/09/08 02:59:04;;;;;;;33.80;26.25;;;21.20;99.90;;;21.79;63.60;101776.19;5113816;28;20039;-72
2021/09/08 03:01:33;;;;;;;33.53;26.20;;;21.30;99.90;;;21.74;63.74;101768.28;5113773;28;20086;-72
2021/09/08 03:04:02;;;;;;;42.22;26.95;;;21.30;99.90;;;21.72;63.87;101761.19;5095517;28;20052;-72
2021/09/08 03:06:30;;;;;;;33.90;25.85;;;21.30;99.90;;;21.74;63.60;101760.19;5113703;28;20067;-72
2021/09/08 03:09:00;;;;;;;32.83;25.80;;;21.30;99.90;;;21.74;63.55;101768.28;5113635;28;20048;-72
2021/09/08 03:11:29;;;;;;;35.03;26.63;;;21.30;99.90;;;21.68;63.53;101768.50;5095395;28;20052;-72
2021/09/08 03:13:57;;;;;;;33.95;26.58;;;21.20;99.90;;;21.56;63.82;101758.19;5113214;28;20040;-72
2021/09/08 03:16:29;;;;;;;37.20;27.17;;;21.20;99.90;;;21.58;63.82;101763.50;5095382;28;20105;-72
2021/09/08 03:18:58;;;;;;;35.65;28.15;;;21.20;99.90;;;21.57;63.92;101759.91;5095359;28;20431;-72
2021/09/08 03:21:27;;;;;;;37.30;27.60;;;21.20;99.90;;;21.58;64.02;101758.13;5113294;28;20047;-72
2021/09/08 03:23:55;;;;;;;35.80;27.38;;;21.20;99.90;;;21.53;64.01;101753.78;5095816;28;20050;-72
2021/09/08 03:26:25;;;;;;;34.92;27.33;;;21.10;99.90;;;21.42;64.08;101738.94;5113808;28;20443;-72
2021/09/08 03:28:54;;;;;;;35.67;27.30;;;21.10;99.90;;;21.48;64.06;101750.38;5113568;28;20070;-72
2021/09/08 03:31:22;;;;;;;35.00;27.88;;;21.10;99.90;;;21.45;64.03;101753.16;5113732;28;20313;-72
2021/09/08 03:33:50;;;;;;;36.22;26.45;;;21.00;99.90;;;21.51;64.24;101746.66;5113381;28;20089;-72
2021/09/08 03:36:19;;;;;;;33.42;25.70;;;21.00;99.90;;;21.30;64.14;101721.41;5095148;28;20412;-72
2021/09/08 03:38:47;;;;;;;35.13;26.27;;;21.00;99.90;;;21.43;64.14;101741.56;5113151;28;20043;-72
2021/09/08 03:41:16;;;;;;;41.97;27.63;;;21.00;99.90;;;21.42;64.23;101747.00;5115064;28;20480;-72
2021/09/08 03:43:45;;;;;;;35.55;25.83;;;20.90;99.90;;;21.43;64.19;101737.97;5116995;28;20047;-72
2021/09/08 03:46:14;;;;;;;33.95;26.30;;;20.90;99.90;;;21.44;64.04;101737.06;5116998;28;20067;-72
2021/09/08 03:48:42;;;;;;;36.45;27.77;;;21.00;99.90;;;21.36;64.28;101739.13;5116920;28;20067;-72
2021/09/08 03:51:11;;;;;;;35.63;27.23;;;20.90;99.90;;;21.21;64.35;101718.16;5116882;28;20044;-72
2021/09/08 03:53:39;;;;;;;36.60;27.25;;;20.90;99.90;;;21.33;64.37;101731.19;5116833;28;20039;-72
2021/09/08 03:56:08;;;;;;;35.10;27.58;;;20.90;99.90;;;21.29;64.28;101721.44;5117040;28;20046;-72
2021/09/08 03:58:37;;;;;;;33.90;26.92;;;20.90;99.90;;;21.25;64.39;101717.09;5116764;28;20616;-72
2021/09/08 04:01:06;;;;;;;33.92;26.60;;;20.80;99.90;;;21.21;64.37;101720.84;5116926;28;20075;-72
2021/09/08 04:03:35;;;;;;;34.63;26.98;;;20.80;99.90;;;21.17;64.64;101721.88;5116611;28;20186;-72
2021/09/08 04:06:05;;;;;;;38.75;27.65;;;20.80;99.90;;;21.13;64.63;101722.91;5116787;28;20109;-72
2021/09/08 04:08:33;;;;;;;34.25;27.13;;;20.70;99.90;;;21.10;64.71;101718.50;5116743;28;20064;-72
2021/09/08 04:11:02;;;;;;;34.15;27.50;;;20.70;99.90;;;21.13;64.93;101712.13;5116428;28;20066;-69
2021/09/08 04:13:30;;;;;;;36.78;27.50;;;20.70;99.90;;;21.07;65.06;101706.97;5116648;28;20073;-71
2021/09/08 04:15:59;;;;;;;33.83;26.33;;;20.70;99.90;;;21.00;64.89;101692.78;5098321;28;20055;-70
2021/09/08 04:18:29;;;;;;;35.55;27.65;;;20.70;99.90;;;20.86;64.76;101668.19;5116355;28;20071;-70
2021/09/08 04:20:57;;;;;;;35.95;29.35;;;20.70;99.90;;;21.04;64.83;101709.78;5116857;28;20039;-70
2021/09/08 04:23:25;;;;;;;37.25;28.60;;;20.70;99.90;;;20.89;65.22;101704.84;5116256;28;20039;-71
2021/09/08 04:25:54;;;;;;;35.78;27.58;;;20.50;99.90;;;20.90;65.11;101701.25;5116237;28;20449;-70
2021/09/08 04:28:22;;;;;;;36.00;27.92;;;20.50;99.90;;;20.65;65.53;101702.03;5116185;28;20114;-71
2021/09/08 04:30:51;;;;;;;39.38;29.35;;;20.40;99.90;;;20.20;66.90;101695.47;5116044;28;20035;-70
2021/09/08 04:33:19;;;;;;;40.80;29.13;;;20.00;99.90;;;20.12;67.35;101704.63;5116011;28;20508;-70
2021/09/08 04:35:49;;;;;;;41.40;30.17;;;19.80;99.90;;;19.86;68.16;101689.28;5116219;28;20043;-70
2021/09/08 04:38:17;;;;;;;38.90;29.92;;;19.60;99.90;;;19.90;68.69;101693.63;5116206;28;20450;-70
2021/09/08 04:40:47;;;;;;;40.45;30.05;;;19.50;99.90;;;19.72;69.10;101691.50;5097657;28;20096;-71
2021/09/08 04:43:16;;;;;;;39.70;29.80;;;19.40;99.90;;;19.50;69.89;101693.03;5116235;28;20529;-70
2021/09/08 04:45:44;;;;;;;38.95;28.23;;;19.20;99.90;;;19.47;70.07;101690.44;5116064;28;20441;-70
2021/09/08 04:48:13;;;;;;;38.90;29.95;;;19.20;99.90;;;19.26;71.04;101691.84;5115796;28;20043;-70
2021/09/08 04:50:41;;;;;;;42.13;31.13;;;19.00;99.90;;;19.25;71.20;101683.84;5115701;28;20059;-70
2021/09/08 04:53:11;;;;;;;42.10;29.83;;;18.90;99.90;;;19.16;71.58;101693.06;5115279;28;20553;-70
2021/09/08 04:55:40;;;;;;;45.03;32.05;;;18.80;99.90;;;18.94;72.37;101691.84;5115906;28;20043;-70
2021/09/08 04:58:08;;;;;;;42.03;31.52;;;18.70;99.90;;;19.09;72.15;101693.22;5115889;28;20549;-70
2021/09/08 05:00:37;;;;;;;40.65;31.17;;;18.70;99.90;;;19.33;71.77;101692.63;5115783;28;20047;-70
2021/09/08 05:03:05;;;;;;;40.70;31.35;;;18.90;99.90;;;19.30;71.46;101690.00;5115344;28;20505;-70
2021/09/08 05:05:34;;;;;;;41.15;31.15;;;19.00;99.90;;;19.25;71.53;101687.44;5115431;28;20377;-71
2021/09/08 05:08:03;;;;;;;41.22;30.92;;;18.90;99.90;;;19.46;71.23;101692.25;5097286;28;20466;-71
2021/09/08 05:10:32;;;;;;;44.22;31.38;;;19.00;99.90;;;19.45;70.96;101689.59;5115220;28;20488;-71
2021/09/08 05:13:01;;;;;;;38.40;30.25;;;19.10;99.90;;;19.54;70.97;101682.19;5115453;28;20046;-71
2021/09/08 05:15:30;;;;;;;44.33;31.77;;;19.20;99.90;;;19.60;70.81;101679.31;5097144;28;20146;-70
2021/09/08 05:17:58;;;;;;;45.42;31.20;;;19.20;99.90;;;19.63;70.45;101681.00;5115409;28;20051;-71
2021/09/08 05:20:27;;;;;;;38.28;29.80;;;19.20;99.90;;;19.60;70.68;101676.63;5115201;28;20461;-71
2021/09/08 05:22:56;;;;;;;43.30;32.00;;;19.20;99.90;;;19.51;70.67;101674.19;5115101;28;20113;-71
2021/09/08 05:25:24;;;;;;;43.75;33.03;;;19.20;99.90;;;19.29;71.35;101677.50;5114964;28;20519;-71
2021/09/08 05:27:54;;;;;;;41.90;31.15;;;19.00;99.90;;;19.33;71.57;101680.09;5114920;28;20526;-70
2021/09/08 05:30:22;;;;;;;46.40;32.17;;;19.00;99.90;;;19.51;71.33;101684.94;5115125;28;20043;-71
2021/09/08 05:32:52;;;;;;;40.38;30.88;;;19.10;99.90;;;19.62;71.08;101688.22;5115146;28;20285;-71
2021/09/08 05:35:20;;;;;;;49.25;32.28;;;19.20;99.90;;;19.64;70.67;101683.69;5115167;28;20434;-71
2021/09/08 05:37:49;;;;;;;37.78;30.17;;;19.30;99.90;;;19.71;70.37;101673.63;5114975;28;20055;-70
2021/09/08 05:40:17;;;;;;;44.05;32.28;;;19.40;99.90;;;19.87;70.19;101674.94;5114604;28;20097;-70
2021/09/08 05:42:46;;;;;;;42.15;31.90;;;19.50;99.90;;;20.01;69.62;101670.06;5114922;28;20075;-71
2021/09/08 05:45:16;;;;;;;43.00;30.42;;;19.60;99.90;;;20.20;69.51;101673.97;5114286;28;20485;-71
2021/09/08 05:47:44;;;;;;;43.90;31.77;;;19.80;99.90;;;20.28;69.20;101666.53;5114711;28;20040;-70
2021/09/08 05:50:13;;;;;;;43.53;31.10;;;19.90;99.90;;;20.29;68.67;101673.66;5114684;28;20305;-71
2021/09/08 05:52:41;;;;;;;43.72;31.00;;;20.00;99.90;;;20.18;68.57;101659.69;5114411;28;20039;-71
2021/09/08 05:55:10;;;;;;;43.15;32.25;;;20.00;99.90;;;20.15;69.15;101666.94;5095937;28;20040;-71
2021/09/08 05:57:39;;;;;;;42.60;30.05;;;19.90;99.90;;;20.42;68.91;101669.66;5114377;28;20459;-71
2021/09/08 06:00:09;;;;;;;43.92;29.80;;;20.00;99.90;;;20.57;68.03;101669.19;5114845;28;20118;-71
2021/09/08 06:02:42;;;;;;;50.42;31.63;;;20.20;99.90;;;20.62;68.03;101669.00;5114863;28;20123;-71
2021/09/08 06:05:12;;;;;;;43.40;31.60;;;20.20;99.90;;;20.49;68.23;101673.03;5113816;28;20047;-71
2021/09/08 06:07:40;;;;;;;43.85;32.20;;;20.10;99.90;;;20.84;67.36;101671.88;5114002;28;20048;-72
2021/09/08 06:10:10;;;;;;;45.20;31.27;;;20.40;99.90;;;20.54;67.58;101671.94;5114175;28;20032;-71
2021/09/08 06:12:38;;;;;;;41.75;30.23;;;20.20;99.90;;;20.46;68.33;101673.13;5114422;28;20096;-71
2021/09/08 06:15:08;;;;;;;41.47;31.60;;;20.00;99.90;;;20.21;69.39;101673.00;5113971;28;20047;-71
2021/09/08 06:17:37;;;;;;;42.83;31.88;;;19.80;99.90;;;20.49;68.92;101673.03;5114359;28;20059;-71
2021/09/08 06:20:10;;;;;;;39.15;30.27;;;20.00;99.90;;;20.74;68.04;101673.97;5113964;28;20045;-70
2021/09/08 06:22:38;;;;;;;41.13;30.45;;;20.30;99.90;;;20.69;67.49;101659.81;5114317;28;20046;-71
2021/09/08 06:25:08;;;;;;;42.70;31.05;;;20.40;99.90;;;21.09;67.38;101673.69;5113888;28;20092;-71
2021/09/08 06:27:38;;;;;;;40.08;31.17;;;20.60;99.90;;;21.45;66.41;101668.81;5114450;28;20053;-66
2021/09/08 06:30:08;;;;;;;40.75;29.63;;;20.90;99.90;;;21.67;65.35;101667.09;5113864;28;20122;-64
2021/09/08 06:32:37;;;;;;;41.83;29.25;;;21.20;99.90;;;21.72;65.18;101675.88;5114237;28;20096;-65
2021/09/08 06:35:08;;;;;;;47.13;29.52;;;21.30;99.90;;;21.68;64.82;101673.38;5114135;28;20119;-64
2021/09/08 06:37:37;;;;;;;39.72;30.02;;;21.30;99.90;;;21.91;64.74;101668.03;5114339;28;20147;-65
2021/09/08 06:40:07;;;;;;;38.72;29.02;;;21.40;99.90;;;22.09;64.65;101662.78;5113667;28;20040;-63
2021/09/08 06:42:36;;;;;;;38.75;30.17;;;21.60;99.90;;;22.45;63.25;101663.16;5113239;28;20048;-63
2021/09/08 06:45:21;;;;;;;40.00;31.10;;;22.00;99.90;;;22.49;63.29;101658.50;5113634;28;20554;-64
2021/09/08 06:47:50;;;;;;;40.88;28.98;;;22.10;99.90;;;22.45;62.91;101660.44;5113651;28;20516;-64
2021/09/08 06:50:20;;;;;;;47.22;30.17;;;22.10;99.90;;;22.70;62.25;101652.25;5095493;28;20097;-64
2021/09/08 06:52:48;;;;;;;43.75;29.95;;;22.30;99.90;;;22.74;61.99;101667.38;5095433;28;20051;-63
2021/09/08 06:55:16;;;;;;;37.80;29.38;;;22.40;99.90;;;22.84;62.47;101647.16;5113355;28;20126;-63
2021/09/08 06:57:45;;;;;;;39.33;31.02;;;22.40;99.90;;;22.94;61.47;101648.50;5113421;28;20048;-64
2021/09/08 07:00:14;;;;;;;38.80;29.23;;;22.50;99.90;;;23.26;61.04;101648.88;5113671;28;20044;-64
2021/09/08 07:02:43;;;;;;;43.17;30.58;;;22.80;99.90;;;22.85;61.77;101639.00;5113387;28;20446;-64
2021/09/08 07:05:12;;;;;;;39.38;29.58;;;22.70;99.90;;;22.67;62.14;101647.84;5113548;28;20062;-64
2021/09/08 07:07:42;;;;;;;39.55;29.83;;;22.40;99.90;;;22.89;62.15;101643.31;5113568;28;20044;-64
2021/09/08 07:10:11;;;;;;;36.47;29.33;;;22.50;99.90;;;23.15;62.03;101648.44;5113357;28;20066;-63
2021/09/08 07:12:40;;;;;;;37.10;30.92;;;22.70;99.90;;;23.19;61.06;101639.25;5113386;28;20127;-63
2021/09/08 07:15:10;;;;;;;38.03;29.42;;;22.80;99.90;;;23.48;60.77;101642.53;5113359;28;20168;-63
2021/09/08 07:17:39;;;;;;;37.53;29.95;;;23.00;99.90;;;23.37;61.05;101643.00;5099471;28;20134;-63
2021/09/08 07:20:09;;;;;;;36.88;28.88;;;23.00;99.90;;;23.15;62.13;101639.50;5117460;28;20120;-65
2021/09/08 07:22:38;;;;;;;36.88;28.70;;;22.70;99.90;;;23.29;62.34;101635.22;5099252;28;20050;-64
2021/09/08 07:25:10;;;;;;;38.75;29.15;;;22.80;99.90;;;23.25;62.09;101628.19;5117819;28;20119;-64
2021/09/08 07:27:39;;;;;;;40.95;29.65;;;22.90;99.90;;;22.51;62.53;101635.94;5099320;28;20078;-63
2021/09/08 07:30:09;;;;;;;37.60;29.83;;;22.40;99.90;;;22.59;63.62;101620.31;5117770;28;20039;-63
2021/09/08 07:32:38;;;;;;;39.10;30.00;;;22.20;99.90;;;23.00;62.65;101621.25;5117525;28;20040;-63
2021/09/08 07:35:09;;;;;;;41.08;29.20;;;22.50;99.90;;;22.99;62.56;101624.91;5117025;28;20086;-63
2021/09/08 07:37:39;;;;;;;38.08;29.58;;;22.60;99.90;;;22.76;63.29;101614.22;5117110;28;20042;-62
2021/09/08 07:40:11;;;;;;;40.38;29.48;;;22.50;99.90;;;22.72;63.28;101620.69;5099056;28;20058;-65
2021/09/08 07:42:39;;;;;;;41.05;30.15;;;22.40;99.90;;;22.49;65.13;101618.94;5117314;28;20056;-63
2021/09/08 07:45:09;;;;;;;36.40;29.38;;;22.10;99.90;;;22.65;63.58;101614.66;5117196;28;20388;-64
2021/09/08 07:47:38;;;;;;;34.85;29.42;;;22.30;99.90;;;22.91;62.99;101611.75;5117137;28;20051;-64
2021/09/08 07:50:08;;;;;;;37.03;29.20;;;22.50;99.90;;;22.49;62.90;101623.44;5117098;28;20130;-63
2021/09/08 07:52:36;;;;;;;38.65;30.00;;;22.20;99.90;;;22.62;63.56;101620.19;5116666;28;20047;-63
2021/09/08 07:55:09;;;;;;;38.25;29.65;;;22.30;99.90;;;23.11;63.57;101610.88;5116783;28;20027;-63
2021/09/08 07:57:38;;;;;;;36.58;29.77;;;22.60;99.90;;;22.62;62.76;101584.25;5116715;28;20031;-63
2021/09/08 08:00:09;;;;;;;38.35;30.40;;;22.50;99.90;;;22.80;63.53;101619.41;5098608;28;20075;-63
2021/09/08 08:02:47;;;;;;;36.72;28.83;;;22.50;99.90;;;22.91;63.96;101622.53;5116628;28;20408;-63
2021/09/08 08:05:16;;;;;;;39.95;29.55;;;22.50;99.90;;;22.59;62.50;101541.25;5098425;28;20074;-64
2021/09/08 08:07:46;;;;;;;38.45;29.65;;;22.70;99.90;;;23.13;62.90;101619.78;5116436;28;20122;-64
2021/09/08 08:10:18;;;;;;;37.13;28.47;;;22.80;99.90;;;23.56;62.59;101622.31;5116442;28;20055;-65
2021/09/08 08:12:47;;;;;;;38.05;29.52;;;23.00;99.90;;;23.86;62.03;101625.44;5116432;28;20043;-64
2021/09/08 08:15:17;;;;;;;41.55;30.02;;;23.40;99.90;;;23.95;59.98;101625.88;5116350;28;20063;-63
2021/09/08 08:17:46;;;;;;;40.42;28.90;;;23.60;99.90;;;23.50;60.48;101619.03;5116409;28;20381;-64
2021/09/08 08:20:15;;;;;;;32.63;27.08;;;23.30;99.90;;;23.41;60.63;101563.59;5116308;28;20498;-63
2021/09/08 08:22:44;;;;;;;36.60;28.23;;;23.40;99.90;;;23.35;60.63;101617.91;5116182;28;20043;-63
2021/09/08 08:25:17;;;;;;;36.03;28.20;;;23.10;99.90;;;22.82;61.34;101530.31;5116192;28;20071;-63
2021/09/08 08:27:47;;;;;;;36.00;28.38;;;23.00;99.90;;;23.38;62.69;101612.38;5115019;28;20055;-64
2021/09/08 08:30:17;;;;;;;38.63;27.13;;;23.00;99.90;;;23.84;61.53;101616.50;5116133;28;20051;-63
2021/09/08 08:32:46;;;;;;;38.35;28.55;;;23.30;99.90;;;23.85;60.87;101607.44;5116114;28;20112;-63
2021/09/08 08:35:15;;;;;;;36.15;27.65;;;23.50;99.90;;;23.25;60.78;101608.41;5116137;28;20036;-63
2021/09/08 08:37:51;;;;;;;36.22;27.33;;;23.10;99.90;;;23.60;61.73;101612.25;5116170;28;20396;-62
2021/09/08 08:40:22;;;;;;;33.78;26.55;;;23.10;99.90;;;24.23;60.01;101608.34;5115936;28;20454;-59
2021/09/08 08:42:51;;;;;;;31.20;26.35;;;23.70;99.90;;;24.03;60.38;101617.41;5116329;28;20044;-60
2021/09/08 08:45:20;;;;;;;31.85;25.58;;;23.60;99.90;;;24.28;60.88;101614.38;5115806;28;20133;-60
2021/09/08 08:47:48;;;;;;;37.28;26.20;;;23.80;99.90;;;24.43;59.11;101617.22;5115755;28;20051;-60
2021/09/08 08:50:18;;;;;;;33.90;25.90;;;24.00;99.90;;;24.29;59.96;101611.63;5097688;28;20079;-60
2021/09/08 08:52:46;;;;;;;31.05;26.13;;;23.90;99.90;;;24.37;59.40;101616.66;5115849;28;20048;-60
2021/09/08 08:55:15;;;;;;;37.63;27.23;;;23.90;99.90;;;24.11;59.41;101613.41;5115506;28;20040;-62
2021/09/08 08:57:48;;;;;;;32.97;26.40;;;23.90;99.90;;;24.13;60.04;101614.22;5115866;28;20050;-61
2021/09/08 09:00:18;;;;;;;38.47;27.27;;;23.70;99.90;;;24.22;59.79;101602.06;5097356;28;20067;-60
2021/09/08 09:02:49;;;;;;;33.80;26.23;;;23.80;99.90;;;24.25;61.04;101607.31;5115646;28;20122;-61
2021/09/08 09:05:36;;;;;;;35.63;27.63;;;23.80;99.90;;;24.02;60.61;101603.00;5115276;28;20039;-60
2021/09/08 09:08:06;;;;;;;34.13;26.33;;;23.70;99.90;;;24.18;60.65;101609.44;5115580;28;20047;-60
2021/09/08 09:10:36;;;;;;;;;;;23.80;99.90;;;23.92;60.15;101584.59;5115777;28;20039;-61
2021/09/08 09:13:09;;;;;;;36.17;27.58;;;23.60;99.90;;;24.03;61.18;101593.09;5115198;28;19919;-60
2021/09/08 09:15:37;;;;;;;34.83;27.35;;;23.60;99.90;;;23.85;61.34;101591.22;5115143;28;20123;-62
2021/09/08 09:18:06;;;;;;;32.90;27.02;;;23.60;99.90;;;24.04;61.08;101592.16;5115293;28;20067;-59
2021/09/08 09:20:39;;;;;;;34.42;28.73;;;23.60;99.90;;;23.84;62.02;101600.28;5115082;28;20039;-59
2021/09/08 09:23:08;;;;;;;38.70;28.45;;;23.50;99.90;;;24.08;61.52;101588.31;5097316;28;20056;-59
2021/09/08 09:25:39;;;;;;;36.20;28.48;;;23.60;99.90;;;24.07;62.27;101601.00;5114963;28;20113;-61
2021/09/08 09:28:09;;;;;;;39.85;27.38;;;23.60;99.90;;;23.92;61.94;101593.59;5114940;28;20112;-61
2021/09/08 09:30:41;;;;;;;35.45;28.50;;;23.60;99.90;;;24.24;62.19;101596.56;5115483;28;20106;-60
2021/09/08 09:33:29;;;;;;;37.53;27.88;;;23.70;99.90;;;24.36;60.37;101593.25;5115465;28;20050;-60
2021/09/08 09:35:59;;;;;;;37.90;27.33;;;23.90;99.90;;;23.97;61.36;101585.22;5114980;28;20055;-62
2021/09/08 09:38:28;;;;;;;35.95;27.73;;;23.70;99.90;;;24.39;60.62;101596.69;5114412;28;20439;-63
2021/09/08 09:40:56;;;;;;;37.63;27.65;;;23.90;99.90;;;24.49;61.60;101588.97;5114996;28;20546;-60
2021/09/08 09:43:32;;;;;;;39.45;26.80;;;24.10;99.90;;;24.73;58.40;101593.19;5114983;28;20130;-61
2021/09/08 09:46:08;;;;;;;35.85;25.85;;;24.40;99.90;;;24.55;60.26;101596.78;5114566;28;20039;-61
2021/09/08 09:48:38;;;;;;;35.70;27.05;;;24.20;99.90;;;24.63;61.22;101599.97;5114604;28;20409;-61
2021/09/08 09:51:10;;;;;;;35.33;25.83;;;24.20;99.90;;;24.47;58.75;101604.41;5114792;28;20074;-62
2021/09/08 09:53:40;;;;;;;37.58;25.90;;;24.10;99.90;;;24.37;59.58;101595.03;5114789;28;20621;-63
2021/09/08 09:56:09;;;;;;;38.42;26.95;;;24.00;99.90;;;24.22;60.08;101596.66;5096351;28;20097;-61
2021/09/08 09:58:39;;;;;;;34.97;26.27;;;23.80;99.90;;;24.44;59.22;101593.75;5114197;28;20046;-62
2021/09/08 10:01:07;;;;;;;29.92;25.17;;;24.00;99.90;;;24.66;59.33;101587.16;5114343;28;20093;-60
2021/09/08 10:03:36;;;;;;;37.65;26.02;;;24.10;99.90;;;24.69;57.75;101596.97;5114095;28;20039;-62
2021/09/08 10:06:05;;;;;;;34.33;27.23;;;24.30;99.90;;;24.49;57.71;101592.56;5096086;28;20048;-61
2021/09/08 10:08:40;;;;;;;35.97;27.08;;;24.10;99.90;;;24.56;59.11;101576.91;5114422;28;20122;-60
2021/09/08 10:11:12;;;;;;;34.33;25.95;;;24.20;99.90;;;24.90;58.77;101595.91;5096143;28;20062;-62